sensor_id;sensor_type;location;lat;lon;timestamp;P1;durP1;ratioP1;P2;durP2;ratioP2
68577;SDS011;61668;45.388;11.784;2022-08-11T00:02:26;8.70;;;1.90;;
68577;SDS011;61668;45.388;11.784;2022-08-11T00:04:56;9.90;;;2.20;;
68577;SDS011;61668;45.388;11.784;2022-08-11T00:07:27;6.50;;;1.60;;
68577;SDS011;61668;45.388;11.784;2022-08-11T00:09:53;6.80;;;1.50;;
68577;SDS011;61668;45.388;11.784;2022-08-11T00:12:20;7.60;;;1.60;;
68577;SDS011;61668;45.388;11.784;2022-08-11T00:14:55;7.80;;;2.10;;
68577;SDS011;61668;45.388;11.784;2022-08-11T00:17:27;7.80;;;1.70;;
68577;SDS011;61668;45.388;11.784;2022-08-11T00:20:10;6.80;;;1.70;;
68577;SDS011;61668;45.388;11.784;2022-08-11T00:22:40;8.40;;;2.20;;
68577;SDS011;61668;45.388;11.784;2022-08-11T00:25:11;7.60;;;1.90;;
68577;SDS011;61668;45.388;11.784;2022-08-11T00:27:40;8.10;;;1.80;;
68577;SDS011;61668;45.388;11.784;2022-08-11T00:30:08;7.90;;;2.10;;
68577;SDS011;61668;45.388;11.784;2022-08-11T00:32:37;8.20;;;2.20;;
68577;SDS011;61668;45.388;11.784;2022-08-11T00:35:06;7.80;;;1.90;;
68577;SDS011;61668;45.388;11.784;2022-08-11T00:37:33;9.70;;;2.50;;
68577;SDS011;61668;45.388;11.784;2022-08-11T00:40:00;7.40;;;2.30;;
68577;SDS011;61668;45.388;11.784;2022-08-11T00:48:35;8.40;;;2.10;;
68577;SDS011;61668;45.388;11.784;2022-08-11T01:00:31;9.50;;;2.40;;
68577;SDS011;61668;45.388;11.784;2022-08-11T01:03:15;7.00;;;2.80;;
68577;SDS011;61668;45.388;11.784;2022-08-11T01:20:13;9.10;;;1.90;;
68577;SDS011;61668;45.388;11.784;2022-08-11T01:26:36;7.00;;;1.60;;
68577;SDS011;61668;45.388;11.784;2022-08-11T01:42:04;6.90;;;1.40;;
68577;SDS011;61668;45.388;11.784;2022-08-11T01:48:28;6.50;;;1.30;;
68577;SDS011;61668;45.388;11.784;2022-08-11T01:52:18;7.00;;;1.70;;
68577;SDS011;61668;45.388;11.784;2022-08-11T01:54:52;5.20;;;1.00;;
68577;SDS011;61668;45.388;11.784;2022-08-11T02:00:28;7.90;;;2.30;;
68577;SDS011;61668;45.388;11.784;2022-08-11T02:03:09;7.70;;;2.40;;
68577;SDS011;61668;45.388;11.784;2022-08-11T02:11:35;8.50;;;2.70;;
68577;SDS011;61668;45.388;11.784;2022-08-11T02:19:37;9.60;;;2.70;;
68577;SDS011;61668;45.388;11.784;2022-08-11T02:22:45;8.10;;;2.90;;
68577;SDS011;61668;45.388;11.784;2022-08-11T02:31:52;8.20;;;2.90;;
68577;SDS011;61668;45.388;11.784;2022-08-11T02:35:00;9.20;;;3.30;;
68577;SDS011;61668;45.388;11.784;2022-08-11T02:42:30;8.10;;;2.70;;
68577;SDS011;61668;45.388;11.784;2022-08-11T02:45:45;9.10;;;2.30;;
68577;SDS011;61668;45.388;11.784;2022-08-11T02:55:21;9.10;;;2.40;;
68577;SDS011;61668;45.388;11.784;2022-08-11T03:01:49;7.60;;;2.10;;
68577;SDS011;61668;45.388;11.784;2022-08-11T03:04:54;7.50;;;3.30;;
68577;SDS011;61668;45.388;11.784;2022-08-11T03:07:46;9.80;;;2.90;;
68577;SDS011;61668;45.388;11.784;2022-08-11T03:10:22;6.70;;;2.20;;
68577;SDS011;61668;45.388;11.784;2022-08-11T03:13:03;7.50;;;2.60;;
68577;SDS011;61668;45.388;11.784;2022-08-11T03:22:22;6.70;;;1.60;;
68577;SDS011;61668;45.388;11.784;2022-08-11T03:25:00;7.00;;;1.50;;
68577;SDS011;61668;45.388;11.784;2022-08-11T03:27:58;7.70;;;1.80;;
68577;SDS011;61668;45.388;11.784;2022-08-11T03:30:42;10.00;;;1.80;;
68577;SDS011;61668;45.388;11.784;2022-08-11T03:33:24;7.30;;;1.50;;
68577;SDS011;61668;45.388;11.784;2022-08-11T03:54:05;7.10;;;1.90;;
68577;SDS011;61668;45.388;11.784;2022-08-11T03:57:35;5.90;;;1.00;;
68577;SDS011;61668;45.388;11.784;2022-08-11T04:21:01;5.10;;;0.90;;
68577;SDS011;61668;45.388;11.784;2022-08-11T04:35:16;6.80;;;1.20;;
68577;SDS011;61668;45.388;11.784;2022-08-11T04:51:00;6.50;;;1.40;;
68577;SDS011;61668;45.388;11.784;2022-08-11T04:58:16;5.50;;;1.40;;
68577;SDS011;61668;45.388;11.784;2022-08-11T05:12:57;6.50;;;1.50;;
68577;SDS011;61668;45.388;11.784;2022-08-11T05:15:51;8.80;;;1.80;;
68577;SDS011;61668;45.388;11.784;2022-08-11T05:18:46;8.10;;;2.30;;
68577;SDS011;61668;45.388;11.784;2022-08-11T05:21:34;8.60;;;2.30;;
68577;SDS011;61668;45.388;11.784;2022-08-11T05:24:21;7.00;;;2.00;;
68577;SDS011;61668;45.388;11.784;2022-08-11T05:27:13;8.70;;;3.10;;
68577;SDS011;61668;45.388;11.784;2022-08-11T05:32:58;8.50;;;1.90;;
68577;SDS011;61668;45.388;11.784;2022-08-11T05:35:47;7.20;;;1.90;;
68577;SDS011;61668;45.388;11.784;2022-08-11T05:38:24;7.70;;;2.00;;
68577;SDS011;61668;45.388;11.784;2022-08-11T05:41:13;5.80;;;1.60;;
68577;SDS011;61668;45.388;11.784;2022-08-11T05:44:00;7.10;;;1.40;;
68577;SDS011;61668;45.388;11.784;2022-08-11T05:46:47;6.70;;;1.20;;
68577;SDS011;61668;45.388;11.784;2022-08-11T05:49:33;6.90;;;1.50;;
68577;SDS011;61668;45.388;11.784;2022-08-11T05:52:23;6.20;;;1.80;;
68577;SDS011;61668;45.388;11.784;2022-08-11T05:55:10;6.90;;;1.70;;
68577;SDS011;61668;45.388;11.784;2022-08-11T05:57:58;6.60;;;1.60;;
68577;SDS011;61668;45.388;11.784;2022-08-11T06:00:27;5.90;;;1.30;;
68577;SDS011;61668;45.388;11.784;2022-08-11T06:02:57;7.00;;;1.50;;
68577;SDS011;61668;45.388;11.784;2022-08-11T06:05:33;6.60;;;1.30;;
68577;SDS011;61668;45.388;11.784;2022-08-11T06:08:04;5.90;;;1.40;;
68577;SDS011;61668;45.388;11.784;2022-08-11T06:10:42;6.50;;;1.30;;
68577;SDS011;61668;45.388;11.784;2022-08-11T06:13:10;6.90;;;1.20;;
68577;SDS011;61668;45.388;11.784;2022-08-11T06:15:47;6.80;;;1.80;;
68577;SDS011;61668;45.388;11.784;2022-08-11T06:18:14;6.20;;;1.60;;
68577;SDS011;61668;45.388;11.784;2022-08-11T06:20:48;8.40;;;1.60;;
68577;SDS011;61668;45.388;11.784;2022-08-11T06:23:16;6.00;;;1.60;;
68577;SDS011;61668;45.388;11.784;2022-08-11T06:25:44;6.80;;;1.50;;
68577;SDS011;61668;45.388;11.784;2022-08-11T06:28:10;6.60;;;1.30;;
68577;SDS011;61668;45.388;11.784;2022-08-11T06:30:43;7.50;;;1.60;;
68577;SDS011;61668;45.388;11.784;2022-08-11T06:33:29;6.40;;;1.70;;
68577;SDS011;61668;45.388;11.784;2022-08-11T06:41:43;6.50;;;1.10;;
68577;SDS011;61668;45.388;11.784;2022-08-11T06:46:45;6.10;;;1.60;;
68577;SDS011;61668;45.388;11.784;2022-08-11T06:49:15;8.80;;;1.30;;
68577;SDS011;61668;45.388;11.784;2022-08-11T06:52:09;6.80;;;1.60;;
68577;SDS011;61668;45.388;11.784;2022-08-11T06:54:43;6.00;;;1.40;;
68577;SDS011;61668;45.388;11.784;2022-08-11T06:57:19;9.00;;;1.40;;
68577;SDS011;61668;45.388;11.784;2022-08-11T07:00:04;6.20;;;1.40;;
68577;SDS011;61668;45.388;11.784;2022-08-11T07:02:57;10.90;;;1.30;;
68577;SDS011;61668;45.388;11.784;2022-08-11T07:11:48;5.80;;;1.10;;
68577;SDS011;61668;45.388;11.784;2022-08-11T07:14:55;5.90;;;1.10;;
68577;SDS011;61668;45.388;11.784;2022-08-11T07:17:43;6.40;;;1.00;;
68577;SDS011;61668;45.388;11.784;2022-08-11T07:20:14;9.30;;;1.10;;
68577;SDS011;61668;45.388;11.784;2022-08-11T07:23:01;6.20;;;0.90;;
68577;SDS011;61668;45.388;11.784;2022-08-11T07:25:53;5.10;;;1.00;;
68577;SDS011;61668;45.388;11.784;2022-08-11T07:28:43;6.00;;;0.90;;
68577;SDS011;61668;45.388;11.784;2022-08-11T07:31:30;6.90;;;1.10;;
68577;SDS011;61668;45.388;11.784;2022-08-11T07:34:15;6.70;;;0.80;;
68577;SDS011;61668;45.388;11.784;2022-08-11T07:36:56;5.70;;;0.80;;
68577;SDS011;61668;45.388;11.784;2022-08-11T07:39:28;5.70;;;0.80;;
68577;SDS011;61668;45.388;11.784;2022-08-11T07:41:57;7.10;;;1.10;;
68577;SDS011;61668;45.388;11.784;2022-08-11T07:44:25;6.80;;;1.10;;
68577;SDS011;61668;45.388;11.784;2022-08-11T07:46:55;5.50;;;0.70;;
68577;SDS011;61668;45.388;11.784;2022-08-11T07:49:43;5.00;;;0.70;;
68577;SDS011;61668;45.388;11.784;2022-08-11T07:52:31;7.60;;;1.10;;
68577;SDS011;61668;45.388;11.784;2022-08-11T07:55:05;4.60;;;0.80;;
68577;SDS011;61668;45.388;11.784;2022-08-11T07:57:36;6.00;;;0.80;;
68577;SDS011;61668;45.388;11.784;2022-08-11T08:00:21;5.70;;;1.10;;
68577;SDS011;61668;45.388;11.784;2022-08-11T08:03:06;7.70;;;1.10;;
68577;SDS011;61668;45.388;11.784;2022-08-11T08:05:52;6.70;;;0.70;;
68577;SDS011;61668;45.388;11.784;2022-08-11T08:08:39;5.80;;;0.70;;
68577;SDS011;61668;45.388;11.784;2022-08-11T08:11:24;4.90;;;0.80;;
68577;SDS011;61668;45.388;11.784;2022-08-11T08:14:10;5.40;;;0.60;;
68577;SDS011;61668;45.388;11.784;2022-08-11T08:16:56;5.90;;;1.00;;
68577;SDS011;61668;45.388;11.784;2022-08-11T08:19:46;5.90;;;0.70;;
68577;SDS011;61668;45.388;11.784;2022-08-11T08:22:17;5.30;;;0.90;;
68577;SDS011;61668;45.388;11.784;2022-08-11T08:24:45;24.00;;;3.10;;
68577;SDS011;61668;45.388;11.784;2022-08-11T08:27:15;10.40;;;1.00;;
68577;SDS011;61668;45.388;11.784;2022-08-11T08:29:43;4.70;;;0.50;;
68577;SDS011;61668;45.388;11.784;2022-08-11T08:32:29;8.40;;;0.60;;
68577;SDS011;61668;45.388;11.784;2022-08-11T08:34:56;12.40;;;1.80;;
68577;SDS011;61668;45.388;11.784;2022-08-11T08:37:24;10.00;;;1.00;;
68577;SDS011;61668;45.388;11.784;2022-08-11T08:39:54;7.70;;;0.80;;
68577;SDS011;61668;45.388;11.784;2022-08-11T08:42:26;6.90;;;0.80;;
68577;SDS011;61668;45.388;11.784;2022-08-11T08:45:14;5.40;;;0.70;;
68577;SDS011;61668;45.388;11.784;2022-08-11T08:47:58;5.30;;;0.90;;
68577;SDS011;61668;45.388;11.784;2022-08-11T08:50:30;5.80;;;0.60;;
68577;SDS011;61668;45.388;11.784;2022-08-11T08:53:20;5.20;;;0.70;;
68577;SDS011;61668;45.388;11.784;2022-08-11T08:55:49;5.50;;;0.70;;
68577;SDS011;61668;45.388;11.784;2022-08-11T08:58:18;16.70;;;2.90;;
68577;SDS011;61668;45.388;11.784;2022-08-11T09:00:46;4.90;;;0.80;;
68577;SDS011;61668;45.388;11.784;2022-08-11T09:03:15;6.00;;;0.70;;
68577;SDS011;61668;45.388;11.784;2022-08-11T09:05:41;5.30;;;0.70;;
68577;SDS011;61668;45.388;11.784;2022-08-11T09:08:07;5.90;;;0.80;;
68577;SDS011;61668;45.388;11.784;2022-08-11T09:10:34;4.70;;;0.90;;
68577;SDS011;61668;45.388;11.784;2022-08-11T09:13:02;5.20;;;0.80;;
68577;SDS011;61668;45.388;11.784;2022-08-11T09:15:29;4.80;;;1.10;;
68577;SDS011;61668;45.388;11.784;2022-08-11T09:17:58;4.40;;;0.60;;
68577;SDS011;61668;45.388;11.784;2022-08-11T09:20:34;10.10;;;0.90;;
68577;SDS011;61668;45.388;11.784;2022-08-11T09:23:04;6.60;;;0.90;;
68577;SDS011;61668;45.388;11.784;2022-08-11T09:25:54;6.80;;;0.90;;
68577;SDS011;61668;45.388;11.784;2022-08-11T09:28:44;5.50;;;1.00;;
68577;SDS011;61668;45.388;11.784;2022-08-11T09:31:12;5.80;;;1.10;;
68577;SDS011;61668;45.388;11.784;2022-08-11T09:33:39;5.20;;;0.90;;
68577;SDS011;61668;45.388;11.784;2022-08-11T09:36:06;6.20;;;1.00;;
68577;SDS011;61668;45.388;11.784;2022-08-11T09:38:52;5.30;;;1.20;;
68577;SDS011;61668;45.388;11.784;2022-08-11T09:41:38;6.40;;;1.30;;
68577;SDS011;61668;45.388;11.784;2022-08-11T09:44:05;5.90;;;1.20;;
68577;SDS011;61668;45.388;11.784;2022-08-11T09:46:51;4.70;;;0.50;;
68577;SDS011;61668;45.388;11.784;2022-08-11T09:49:19;5.70;;;1.00;;
68577;SDS011;61668;45.388;11.784;2022-08-11T09:51:48;5.40;;;1.00;;
68577;SDS011;61668;45.388;11.784;2022-08-11T09:54:15;6.80;;;1.20;;
68577;SDS011;61668;45.388;11.784;2022-08-11T09:56:42;5.30;;;0.80;;
68577;SDS011;61668;45.388;11.784;2022-08-11T09:59:26;4.20;;;0.70;;
68577;SDS011;61668;45.388;11.784;2022-08-11T10:02:00;4.60;;;1.00;;
68577;SDS011;61668;45.388;11.784;2022-08-11T10:04:36;6.10;;;1.10;;
68577;SDS011;61668;45.388;11.784;2022-08-11T10:07:05;4.80;;;1.00;;
68577;SDS011;61668;45.388;11.784;2022-08-11T10:12:35;5.30;;;0.80;;
68577;SDS011;61668;45.388;11.784;2022-08-11T10:15:07;5.30;;;0.90;;
68577;SDS011;61668;45.388;11.784;2022-08-11T10:17:56;5.90;;;1.30;;
68577;SDS011;61668;45.388;11.784;2022-08-11T10:20:46;6.50;;;0.80;;
68577;SDS011;61668;45.388;11.784;2022-08-11T10:23:15;4.80;;;1.00;;
68577;SDS011;61668;45.388;11.784;2022-08-11T10:26:02;8.90;;;0.90;;
68577;SDS011;61668;45.388;11.784;2022-08-11T10:28:47;5.50;;;0.90;;
68577;SDS011;61668;45.388;11.784;2022-08-11T10:31:12;5.60;;;1.10;;
68577;SDS011;61668;45.388;11.784;2022-08-11T10:33:57;5.10;;;0.50;;
68577;SDS011;61668;45.388;11.784;2022-08-11T10:36:34;5.00;;;1.10;;
68577;SDS011;61668;45.388;11.784;2022-08-11T10:39:08;5.80;;;0.80;;
68577;SDS011;61668;45.388;11.784;2022-08-11T10:41:36;5.40;;;1.20;;
68577;SDS011;61668;45.388;11.784;2022-08-11T10:44:21;5.70;;;1.40;;
68577;SDS011;61668;45.388;11.784;2022-08-11T10:46:48;5.20;;;0.90;;
68577;SDS011;61668;45.388;11.784;2022-08-11T10:49:32;5.60;;;0.70;;
68577;SDS011;61668;45.388;11.784;2022-08-11T10:51:58;4.80;;;0.90;;
68577;SDS011;61668;45.388;11.784;2022-08-11T10:54:44;5.50;;;0.70;;
68577;SDS011;61668;45.388;11.784;2022-08-11T10:57:29;5.50;;;0.70;;
68577;SDS011;61668;45.388;11.784;2022-08-11T11:00:14;4.90;;;0.60;;
68577;SDS011;61668;45.388;11.784;2022-08-11T11:02:42;4.50;;;0.80;;
68577;SDS011;61668;45.388;11.784;2022-08-11T11:05:13;4.20;;;0.60;;
68577;SDS011;61668;45.388;11.784;2022-08-11T11:08:09;5.10;;;0.80;;
68577;SDS011;61668;45.388;11.784;2022-08-11T11:10:57;5.40;;;0.90;;
68577;SDS011;61668;45.388;11.784;2022-08-11T11:13:24;5.40;;;0.80;;
68577;SDS011;61668;45.388;11.784;2022-08-11T11:16:10;4.50;;;0.70;;
68577;SDS011;61668;45.388;11.784;2022-08-11T11:19:10;6.70;;;0.50;;
68577;SDS011;61668;45.388;11.784;2022-08-11T11:21:37;4.70;;;0.50;;
68577;SDS011;61668;45.388;11.784;2022-08-11T11:24:15;5.00;;;0.80;;
68577;SDS011;61668;45.388;11.784;2022-08-11T11:26:59;5.10;;;0.60;;
68577;SDS011;61668;45.388;11.784;2022-08-11T11:37:52;5.80;;;0.90;;
68577;SDS011;61668;45.388;11.784;2022-08-11T11:40:21;5.50;;;0.70;;
68577;SDS011;61668;45.388;11.784;2022-08-11T11:42:49;5.00;;;0.90;;
68577;SDS011;61668;45.388;11.784;2022-08-11T11:45:19;5.10;;;0.80;;
68577;SDS011;61668;45.388;11.784;2022-08-11T11:47:47;4.80;;;0.80;;
68577;SDS011;61668;45.388;11.784;2022-08-11T11:50:43;5.20;;;0.60;;
68577;SDS011;61668;45.388;11.784;2022-08-11T11:53:09;4.90;;;1.30;;
68577;SDS011;61668;45.388;11.784;2022-08-11T11:55:36;5.10;;;1.10;;
68577;SDS011;61668;45.388;11.784;2022-08-11T11:58:03;6.20;;;0.80;;
68577;SDS011;61668;45.388;11.784;2022-08-11T12:00:48;5.30;;;0.90;;
68577;SDS011;61668;45.388;11.784;2022-08-11T12:03:34;4.40;;;0.90;;
68577;SDS011;61668;45.388;11.784;2022-08-11T12:06:02;4.30;;;0.50;;
68577;SDS011;61668;45.388;11.784;2022-08-11T12:08:28;4.30;;;0.60;;
68577;SDS011;61668;45.388;11.784;2022-08-11T12:10:57;5.00;;;1.00;;
68577;SDS011;61668;45.388;11.784;2022-08-11T12:13:46;5.10;;;0.80;;
68577;SDS011;61668;45.388;11.784;2022-08-11T12:16:16;5.80;;;0.90;;
68577;SDS011;61668;45.388;11.784;2022-08-11T12:18:46;6.30;;;0.70;;
68577;SDS011;61668;45.388;11.784;2022-08-11T12:21:14;4.30;;;0.50;;
68577;SDS011;61668;45.388;11.784;2022-08-11T12:23:42;4.90;;;0.80;;
68577;SDS011;61668;45.388;11.784;2022-08-11T12:26:27;5.60;;;0.80;;
68577;SDS011;61668;45.388;11.784;2022-08-11T12:29:13;5.20;;;1.00;;
68577;SDS011;61668;45.388;11.784;2022-08-11T12:31:41;5.50;;;1.30;;
68577;SDS011;61668;45.388;11.784;2022-08-11T12:34:11;5.30;;;0.90;;
68577;SDS011;61668;45.388;11.784;2022-08-11T12:36:41;4.50;;;1.30;;
68577;SDS011;61668;45.388;11.784;2022-08-11T12:39:20;5.70;;;1.10;;
68577;SDS011;61668;45.388;11.784;2022-08-11T12:42:09;5.80;;;1.00;;
68577;SDS011;61668;45.388;11.784;2022-08-11T12:44:56;4.90;;;0.90;;
68577;SDS011;61668;45.388;11.784;2022-08-11T12:47:46;5.90;;;1.00;;
68577;SDS011;61668;45.388;11.784;2022-08-11T12:50:33;6.10;;;1.00;;
68577;SDS011;61668;45.388;11.784;2022-08-11T12:53:25;5.10;;;1.00;;
68577;SDS011;61668;45.388;11.784;2022-08-11T12:55:57;5.00;;;0.80;;
68577;SDS011;61668;45.388;11.784;2022-08-11T12:58:48;6.50;;;1.10;;
68577;SDS011;61668;45.388;11.784;2022-08-11T13:01:14;5.10;;;1.00;;
68577;SDS011;61668;45.388;11.784;2022-08-11T13:03:59;6.00;;;1.20;;
68577;SDS011;61668;45.388;11.784;2022-08-11T13:06:45;8.70;;;3.20;;
68577;SDS011;61668;45.388;11.784;2022-08-11T13:09:11;6.10;;;1.30;;
68577;SDS011;61668;45.388;11.784;2022-08-11T13:14:05;4.60;;;1.10;;
68577;SDS011;61668;45.388;11.784;2022-08-11T13:16:33;5.70;;;0.90;;
68577;SDS011;61668;45.388;11.784;2022-08-11T13:19:19;5.60;;;0.90;;
68577;SDS011;61668;45.388;11.784;2022-08-11T13:21:47;5.30;;;0.90;;
68577;SDS011;61668;45.388;11.784;2022-08-11T13:24:14;5.30;;;0.90;;
68577;SDS011;61668;45.388;11.784;2022-08-11T13:26:41;4.60;;;0.80;;
68577;SDS011;61668;45.388;11.784;2022-08-11T13:29:08;5.40;;;1.00;;
68577;SDS011;61668;45.388;11.784;2022-08-11T13:31:36;4.90;;;0.90;;
68577;SDS011;61668;45.388;11.784;2022-08-11T13:34:02;4.70;;;0.80;;
68577;SDS011;61668;45.388;11.784;2022-08-11T13:36:28;4.20;;;0.60;;
68577;SDS011;61668;45.388;11.784;2022-08-11T13:38:55;4.90;;;0.70;;
68577;SDS011;61668;45.388;11.784;2022-08-11T13:41:25;5.30;;;0.60;;
68577;SDS011;61668;45.388;11.784;2022-08-11T13:44:05;4.70;;;0.70;;
68577;SDS011;61668;45.388;11.784;2022-08-11T13:46:32;6.00;;;1.00;;
68577;SDS011;61668;45.388;11.784;2022-08-11T13:48:58;4.90;;;0.90;;
68577;SDS011;61668;45.388;11.784;2022-08-11T13:51:25;4.90;;;0.70;;
68577;SDS011;61668;45.388;11.784;2022-08-11T13:54:11;5.30;;;1.20;;
68577;SDS011;61668;45.388;11.784;2022-08-11T13:56:44;4.70;;;0.70;;
68577;SDS011;61668;45.388;11.784;2022-08-11T13:59:13;5.80;;;1.00;;
68577;SDS011;61668;45.388;11.784;2022-08-11T14:01:47;11.50;;;1.10;;
68577;SDS011;61668;45.388;11.784;2022-08-11T14:04:22;6.80;;;1.10;;
68577;SDS011;61668;45.388;11.784;2022-08-11T14:06:59;4.60;;;0.70;;
68577;SDS011;61668;45.388;11.784;2022-08-11T14:09:31;5.70;;;0.90;;
68577;SDS011;61668;45.388;11.784;2022-08-11T14:12:05;5.40;;;0.90;;
68577;SDS011;61668;45.388;11.784;2022-08-11T14:15:02;4.50;;;1.00;;
68577;SDS011;61668;45.388;11.784;2022-08-11T14:17:32;5.00;;;0.70;;
68577;SDS011;61668;45.388;11.784;2022-08-11T14:20:03;4.40;;;1.00;;
68577;SDS011;61668;45.388;11.784;2022-08-11T14:22:31;5.90;;;1.00;;
68577;SDS011;61668;45.388;11.784;2022-08-11T14:24:58;5.50;;;1.00;;
68577;SDS011;61668;45.388;11.784;2022-08-11T14:27:24;4.70;;;0.90;;
68577;SDS011;61668;45.388;11.784;2022-08-11T14:29:56;6.30;;;0.90;;
68577;SDS011;61668;45.388;11.784;2022-08-11T14:32:24;5.80;;;0.70;;
68577;SDS011;61668;45.388;11.784;2022-08-11T14:34:53;5.90;;;0.80;;
68577;SDS011;61668;45.388;11.784;2022-08-11T14:37:21;5.90;;;1.00;;
68577;SDS011;61668;45.388;11.784;2022-08-11T14:39:55;5.70;;;1.20;;
68577;SDS011;61668;45.388;11.784;2022-08-11T14:42:22;4.60;;;0.70;;
68577;SDS011;61668;45.388;11.784;2022-08-11T14:45:15;5.10;;;1.10;;
68577;SDS011;61668;45.388;11.784;2022-08-11T14:48:02;6.00;;;1.10;;
68577;SDS011;61668;45.388;11.784;2022-08-11T14:50:31;10.90;;;1.10;;
68577;SDS011;61668;45.388;11.784;2022-08-11T14:53:05;5.20;;;0.80;;
68577;SDS011;61668;45.388;11.784;2022-08-11T14:55:41;6.50;;;0.70;;
68577;SDS011;61668;45.388;11.784;2022-08-11T14:58:29;6.00;;;0.70;;
68577;SDS011;61668;45.388;11.784;2022-08-11T15:00:56;5.10;;;1.20;;
68577;SDS011;61668;45.388;11.784;2022-08-11T15:03:25;4.60;;;1.00;;
68577;SDS011;61668;45.388;11.784;2022-08-11T15:05:57;5.70;;;0.50;;
68577;SDS011;61668;45.388;11.784;2022-08-11T15:08:34;5.20;;;1.40;;
68577;SDS011;61668;45.388;11.784;2022-08-11T15:11:21;5.60;;;0.90;;
68577;SDS011;61668;45.388;11.784;2022-08-11T15:14:09;5.60;;;1.00;;
68577;SDS011;61668;45.388;11.784;2022-08-11T15:16:39;4.90;;;0.80;;
68577;SDS011;61668;45.388;11.784;2022-08-11T15:19:27;4.80;;;0.80;;
68577;SDS011;61668;45.388;11.784;2022-08-11T15:21:54;5.30;;;0.90;;
68577;SDS011;61668;45.388;11.784;2022-08-11T15:24:38;6.10;;;0.90;;
68577;SDS011;61668;45.388;11.784;2022-08-11T15:27:08;6.80;;;1.10;;
68577;SDS011;61668;45.388;11.784;2022-08-11T15:29:56;5.20;;;1.30;;
68577;SDS011;61668;45.388;11.784;2022-08-11T15:32:43;4.60;;;0.80;;
68577;SDS011;61668;45.388;11.784;2022-08-11T15:35:29;4.70;;;0.70;;
68577;SDS011;61668;45.388;11.784;2022-08-11T15:38:16;5.90;;;0.70;;
68577;SDS011;61668;45.388;11.784;2022-08-11T15:40:43;5.60;;;0.60;;
68577;SDS011;61668;45.388;11.784;2022-08-11T15:46:28;4.50;;;0.50;;
68577;SDS011;61668;45.388;11.784;2022-08-11T15:49:27;5.80;;;1.30;;
68577;SDS011;61668;45.388;11.784;2022-08-11T15:52:05;4.50;;;0.90;;
68577;SDS011;61668;45.388;11.784;2022-08-11T15:54:34;6.30;;;0.80;;
68577;SDS011;61668;45.388;11.784;2022-08-11T15:57:04;5.20;;;0.90;;
68577;SDS011;61668;45.388;11.784;2022-08-11T15:59:31;6.00;;;0.70;;
68577;SDS011;61668;45.388;11.784;2022-08-11T16:02:20;5.20;;;0.60;;
68577;SDS011;61668;45.388;11.784;2022-08-11T16:05:11;6.20;;;0.80;;
68577;SDS011;61668;45.388;11.784;2022-08-11T16:07:40;5.60;;;0.80;;
68577;SDS011;61668;45.388;11.784;2022-08-11T16:10:13;4.80;;;0.60;;
68577;SDS011;61668;45.388;11.784;2022-08-11T16:13:02;4.20;;;0.50;;
68577;SDS011;61668;45.388;11.784;2022-08-11T16:15:35;5.40;;;0.50;;
68577;SDS011;61668;45.388;11.784;2022-08-11T16:18:24;6.10;;;0.80;;
68577;SDS011;61668;45.388;11.784;2022-08-11T16:21:09;4.50;;;0.70;;
68577;SDS011;61668;45.388;11.784;2022-08-11T16:23:38;5.70;;;0.60;;
68577;SDS011;61668;45.388;11.784;2022-08-11T16:26:05;4.50;;;0.40;;
68577;SDS011;61668;45.388;11.784;2022-08-11T16:28:33;6.70;;;0.50;;
68577;SDS011;61668;45.388;11.784;2022-08-11T16:31:00;4.70;;;1.10;;
68577;SDS011;61668;45.388;11.784;2022-08-11T16:33:27;4.20;;;0.40;;
68577;SDS011;61668;45.388;11.784;2022-08-11T16:35:55;4.30;;;0.60;;
68577;SDS011;61668;45.388;11.784;2022-08-11T16:38:40;4.40;;;0.60;;
68577;SDS011;61668;45.388;11.784;2022-08-11T16:41:10;4.70;;;0.70;;
68577;SDS011;61668;45.388;11.784;2022-08-11T16:43:44;4.50;;;0.60;;
68577;SDS011;61668;45.388;11.784;2022-08-11T16:46:30;5.60;;;0.70;;
68577;SDS011;61668;45.388;11.784;2022-08-11T16:49:19;4.70;;;0.60;;
68577;SDS011;61668;45.388;11.784;2022-08-11T16:51:46;4.50;;;0.80;;
68577;SDS011;61668;45.388;11.784;2022-08-11T16:54:12;4.30;;;0.50;;
68577;SDS011;61668;45.388;11.784;2022-08-11T16:56:50;4.70;;;0.50;;
68577;SDS011;61668;45.388;11.784;2022-08-11T16:59:23;4.80;;;0.60;;
68577;SDS011;61668;45.388;11.784;2022-08-11T17:04:37;4.10;;;0.40;;
68577;SDS011;61668;45.388;11.784;2022-08-11T17:07:28;4.40;;;0.60;;
68577;SDS011;61668;45.388;11.784;2022-08-11T17:10:18;5.50;;;0.50;;
68577;SDS011;61668;45.388;11.784;2022-08-11T17:13:08;6.50;;;0.50;;
68577;SDS011;61668;45.388;11.784;2022-08-11T17:15:37;5.00;;;0.60;;
68577;SDS011;61668;45.388;11.784;2022-08-11T17:19:05;4.90;;;0.60;;
68577;SDS011;61668;45.388;11.784;2022-08-11T17:21:37;5.40;;;0.80;;
68577;SDS011;61668;45.388;11.784;2022-08-11T17:24:25;4.70;;;0.40;;
68577;SDS011;61668;45.388;11.784;2022-08-11T17:26:52;5.00;;;0.90;;
68577;SDS011;61668;45.388;11.784;2022-08-11T17:32:11;4.90;;;0.60;;
68577;SDS011;61668;45.388;11.784;2022-08-11T17:35:02;5.00;;;0.90;;
68577;SDS011;61668;45.388;11.784;2022-08-11T17:37:50;4.90;;;0.70;;
68577;SDS011;61668;45.388;11.784;2022-08-11T17:40:20;5.80;;;0.80;;
68577;SDS011;61668;45.388;11.784;2022-08-11T17:42:50;4.40;;;0.70;;
68577;SDS011;61668;45.388;11.784;2022-08-11T17:45:38;4.90;;;0.80;;
68577;SDS011;61668;45.388;11.784;2022-08-11T17:48:44;5.90;;;0.70;;
68577;SDS011;61668;45.388;11.784;2022-08-11T17:51:16;5.40;;;0.60;;
68577;SDS011;61668;45.388;11.784;2022-08-11T17:54:03;5.60;;;0.80;;
68577;SDS011;61668;45.388;11.784;2022-08-11T17:56:49;5.30;;;0.60;;
68577;SDS011;61668;45.388;11.784;2022-08-11T17:59:36;5.30;;;0.90;;
68577;SDS011;61668;45.388;11.784;2022-08-11T18:02:21;3.90;;;0.40;;
68577;SDS011;61668;45.388;11.784;2022-08-11T18:05:11;4.70;;;0.50;;
68577;SDS011;61668;45.388;11.784;2022-08-11T18:07:38;6.00;;;1.10;;
68577;SDS011;61668;45.388;11.784;2022-08-11T18:10:25;7.40;;;1.20;;
68577;SDS011;61668;45.388;11.784;2022-08-11T18:13:14;8.60;;;2.50;;
68577;SDS011;61668;45.388;11.784;2022-08-11T18:16:00;5.60;;;1.10;;
68577;SDS011;61668;45.388;11.784;2022-08-11T18:18:44;5.50;;;0.70;;
68577;SDS011;61668;45.388;11.784;2022-08-11T18:21:29;6.80;;;1.10;;
68577;SDS011;61668;45.388;11.784;2022-08-11T18:24:15;5.60;;;1.10;;
68577;SDS011;61668;45.388;11.784;2022-08-11T18:27:01;6.00;;;0.60;;
68577;SDS011;61668;45.388;11.784;2022-08-11T18:29:49;6.00;;;0.90;;
68577;SDS011;61668;45.388;11.784;2022-08-11T18:32:35;7.30;;;0.80;;
68577;SDS011;61668;45.388;11.784;2022-08-11T18:35:20;5.90;;;0.60;;
68577;SDS011;61668;45.388;11.784;2022-08-11T18:38:09;6.40;;;1.00;;
68577;SDS011;61668;45.388;11.784;2022-08-11T18:40:55;6.30;;;1.80;;
68577;SDS011;61668;45.388;11.784;2022-08-11T18:43:44;6.50;;;1.10;;
68577;SDS011;61668;45.388;11.784;2022-08-11T18:46:33;6.60;;;1.50;;
68577;SDS011;61668;45.388;11.784;2022-08-11T18:49:23;6.70;;;1.40;;
68577;SDS011;61668;45.388;11.784;2022-08-11T18:52:10;6.80;;;2.30;;
68577;SDS011;61668;45.388;11.784;2022-08-11T18:54:59;6.30;;;1.50;;
68577;SDS011;61668;45.388;11.784;2022-08-11T18:57:46;6.20;;;1.40;;
68577;SDS011;61668;45.388;11.784;2022-08-11T19:00:33;6.70;;;1.70;;
68577;SDS011;61668;45.388;11.784;2022-08-11T19:03:20;6.70;;;1.60;;
68577;SDS011;61668;45.388;11.784;2022-08-11T19:06:07;7.10;;;1.60;;
68577;SDS011;61668;45.388;11.784;2022-08-11T19:08:56;6.30;;;1.20;;
68577;SDS011;61668;45.388;11.784;2022-08-11T19:11:44;5.80;;;0.80;;
68577;SDS011;61668;45.388;11.784;2022-08-11T19:14:29;6.00;;;1.00;;